createdAt,value
2019-02-26T00:01:30.861Z,9.73
2019-02-26T00:06:25.493Z,9.23
2019-02-26T00:11:18.757Z,12.47
2019-02-26T00:16:14.946Z,7.73
2019-02-26T00:21:06.442Z,9.67
2019-02-26T00:25:59.427Z,11.13
2019-02-26T00:30:55.031Z,7.63
2019-02-26T00:35:50.177Z,8.87
2019-02-26T00:40:43.252Z,8.40
2019-02-26T00:45:38.900Z,8.23
2019-02-26T00:50:34.510Z,11.10
2019-02-26T00:55:29.334Z,9.50
2019-02-26T01:00:20.675Z,9.67
2019-02-26T01:05:15.812Z,11.93
2019-02-26T01:10:11.626Z,8.53
2019-02-26T01:15:09.355Z,10.43
2019-02-26T01:20:05.349Z,10.23
2019-02-26T01:24:58.432Z,10.43
2019-02-26T01:29:53.576Z,8.83
2019-02-26T01:34:47.837Z,7.87
2019-02-26T01:39:42.974Z,8.70
2019-02-26T01:44:38.062Z,10.10
2019-02-26T01:49:30.587Z,7.43
2019-02-26T01:54:23.427Z,7.97
2019-02-26T01:59:19.004Z,8.60
2019-02-26T02:04:12.878Z,7.07
2019-02-26T02:09:09.315Z,8.47
2019-02-26T02:14:02.065Z,8.13
2019-02-26T02:18:58.208Z,8.50
2019-02-26T02:23:52.859Z,9.63
2019-02-26T02:28:45.731Z,6.63
2019-02-26T02:33:38.659Z,8.33
2019-02-26T02:38:31.566Z,8.10
2019-02-26T02:43:26.321Z,9.37
2019-02-26T02:48:19.235Z,9.90
2019-02-26T02:53:12.598Z,8.90
2019-02-26T02:58:05.485Z,9.67
2019-02-26T03:02:58.439Z,8.87
2019-02-26T03:07:53.557Z,7.20
2019-02-26T03:12:48.587Z,7.87
2019-02-26T03:17:42.759Z,9.67
2019-02-26T03:22:38.547Z,8.80
2019-02-26T03:27:31.202Z,8.63
2019-02-26T03:32:25.307Z,7.97
2019-02-26T03:37:18.220Z,7.53
2019-02-26T03:42:14.147Z,8.43
2019-02-26T03:47:06.211Z,7.53
2019-02-26T03:52:00.165Z,10.13
2019-02-26T03:56:53.568Z,8.00
2019-02-26T04:01:46.507Z,10.27
2019-02-26T04:06:41.230Z,7.70
2019-02-26T04:11:34.262Z,8.60
2019-02-26T04:16:27.174Z,8.87
2019-02-26T04:21:21.109Z,8.67
2019-02-26T04:26:52.311Z,7.47
2019-02-26T04:32:37.801Z,7.23
2019-02-26T04:38:38.424Z,7.33
2019-02-26T04:44:41.416Z,6.50
2019-02-26T04:49:36.738Z,7.73
2019-02-26T04:54:31.196Z,8.10
2019-02-26T04:59:24.614Z,7.90
2019-02-26T05:04:17.530Z,7.03
2019-02-26T05:09:10.616Z,9.73
2019-02-26T05:14:03.647Z,7.47
2019-02-26T05:18:58.513Z,7.83
2019-02-26T05:23:52.418Z,9.90
2019-02-26T05:28:48.833Z,8.30
2019-02-26T05:33:41.006Z,7.20
2019-02-26T05:38:34.930Z,14.00
2019-02-26T05:43:30.681Z,7.73
2019-02-26T05:48:25.777Z,9.93
2019-02-26T05:53:18.275Z,8.40
2019-02-26T05:58:15.179Z,9.77
2019-02-26T06:03:07.205Z,8.30
2019-02-26T06:08:00.832Z,10.47
2019-02-26T06:12:53.693Z,9.87
2019-02-26T06:17:48.241Z,9.57
2019-02-26T06:22:42.580Z,11.97
2019-02-26T06:27:37.736Z,8.00
2019-02-26T06:32:34.746Z,9.77
2019-02-26T06:37:29.097Z,9.17
2019-02-26T06:42:22.295Z,11.50
2019-02-26T06:47:15.219Z,9.67
2019-02-26T06:52:08.438Z,7.83
2019-02-26T06:57:02.918Z,9.17
2019-02-26T07:01:56.114Z,7.20
2019-02-26T07:06:49.098Z,11.00
2019-02-26T07:11:42.929Z,9.67
2019-02-26T07:16:39.821Z,11.13
2019-02-26T07:21:30.635Z,6.93
2019-02-26T07:26:23.640Z,8.50
2019-02-26T07:31:16.582Z,12.57
2019-02-26T07:36:09.515Z,7.67
2019-02-26T07:41:03.794Z,9.37
2019-02-26T07:45:57.277Z,9.33
2019-02-26T07:50:50.785Z,8.53
2019-02-26T07:55:43.907Z,8.80
2019-02-26T08:00:37.705Z,10.60
2019-02-26T08:05:31.615Z,10.17
2019-02-26T08:10:24.612Z,13.20
2019-02-26T08:15:17.607Z,7.33
2019-02-26T08:20:14.301Z,8.67
2019-02-26T08:25:07.418Z,11.40
2019-02-26T08:30:00.887Z,13.33
2019-02-26T08:34:56.801Z,9.43
2019-02-26T08:39:52.484Z,12.97
2019-02-26T08:44:51.084Z,6.07
2019-02-26T08:49:47.450Z,7.10
2019-02-26T08:54:44.236Z,8.70
2019-02-26T08:59:42.264Z,11.10
2019-02-26T09:04:40.819Z,7.83
2019-02-26T09:09:36.626Z,9.00
2019-02-26T09:14:37.303Z,7.30
2019-02-26T09:19:33.175Z,7.77
2019-02-26T09:24:30.798Z,9.00
2019-02-26T09:29:27.055Z,8.77
2019-02-26T09:34:25.960Z,6.60
2019-02-26T09:39:20.781Z,7.97
2019-02-26T09:44:19.657Z,10.60
2019-02-26T09:49:15.642Z,8.97
2019-02-26T09:54:15.292Z,10.63
2019-02-26T09:59:14.799Z,11.47
2019-02-26T10:04:10.784Z,9.30
2019-02-26T10:09:10.690Z,8.97
2019-02-26T10:14:07.807Z,9.90
2019-02-26T10:19:03.606Z,8.20
2019-02-26T10:24:01.769Z,8.67
2019-02-26T10:28:59.013Z,8.80
2019-02-26T10:33:54.689Z,8.53
2019-02-26T10:38:55.080Z,9.90
2019-02-26T10:43:51.601Z,10.50
2019-02-26T10:48:48.168Z,11.63
2019-02-26T10:53:45.116Z,9.07
2019-02-26T10:58:41.076Z,8.93
2019-02-26T11:03:40.874Z,11.13
2019-02-26T11:08:35.130Z,9.03
2019-02-26T11:13:31.525Z,12.57
2019-02-26T11:18:26.042Z,10.70
2019-02-26T11:23:30.289Z,8.83
2019-02-26T11:28:20.005Z,8.53
2019-02-26T11:33:16.017Z,6.67
2019-02-26T11:38:12.350Z,6.60
2019-02-26T11:43:12.360Z,7.63
2019-02-26T11:48:08.776Z,14.73
2019-02-26T11:53:04.067Z,7.47
2019-02-26T11:58:00.098Z,8.27
2019-02-26T12:02:56.001Z,8.73
2019-02-26T12:07:53.705Z,10.37
2019-02-26T12:12:51.553Z,9.07
2019-02-26T12:17:51.631Z,9.37
2019-02-26T12:22:49.656Z,8.03
2019-02-26T12:27:46.147Z,9.20
2019-02-26T12:32:45.501Z,8.10
2019-02-26T12:37:41.296Z,6.63
2019-02-26T12:42:37.336Z,6.53
2019-02-26T12:47:33.181Z,8.53
2019-02-26T12:52:30.411Z,7.37
2019-02-26T12:57:28.886Z,7.73
2019-02-26T13:02:25.636Z,9.43
2019-02-26T13:07:20.545Z,6.90
2019-02-26T13:12:20.567Z,6.30
2019-02-26T13:17:17.253Z,5.73
2019-02-26T13:22:17.205Z,4.47
2019-02-26T13:27:10.601Z,6.60
2019-02-26T13:32:09.029Z,6.07
2019-02-26T13:37:05.595Z,5.53
2019-02-26T13:47:00.023Z,8.20
2019-02-26T13:51:56.575Z,5.83
2019-02-26T13:56:52.529Z,6.63
2019-02-26T14:01:48.802Z,6.53
2019-02-26T14:06:44.819Z,7.27
2019-02-26T14:11:41.736Z,5.07
2019-02-26T14:16:38.081Z,5.20
2019-02-26T14:21:33.898Z,4.97
2019-02-26T14:26:29.607Z,4.47
2019-02-26T14:31:26.467Z,5.70
2019-02-26T14:36:22.220Z,7.27
2019-02-26T14:41:17.792Z,7.40
2019-02-26T14:46:17.089Z,8.23
2019-02-26T14:51:13.277Z,5.70
2019-02-26T14:56:09.555Z,8.27
2019-02-26T15:01:06.570Z,6.20
2019-02-26T15:06:02.953Z,6.20
2019-02-26T15:11:00.029Z,5.70
2019-02-26T15:15:56.743Z,7.97
2019-02-26T15:20:53.268Z,7.40
2019-02-26T15:25:49.587Z,5.17
2019-02-26T15:30:48.070Z,5.63
2019-02-26T15:35:44.736Z,8.13
2019-02-26T15:40:41.743Z,6.10
2019-02-26T15:45:34.857Z,8.57
2019-02-26T15:50:27.954Z,6.37
2019-02-26T15:55:21.052Z,7.40
2019-02-26T16:00:19.199Z,9.67
2019-02-26T16:05:12.395Z,10.53
2019-02-26T16:10:07.423Z,9.07
2019-02-26T16:15:00.548Z,10.20
2019-02-26T16:19:53.673Z,9.37
2019-02-26T16:24:46.953Z,9.13
2019-02-26T16:29:40.363Z,10.70
2019-02-26T16:34:35.087Z,9.50
2019-02-26T16:39:28.374Z,10.87
2019-02-26T16:44:22.578Z,12.03
2019-02-26T16:49:16.668Z,10.27
2019-02-26T16:54:09.665Z,10.90
2019-02-26T16:59:07.608Z,11.07
2019-02-26T17:03:59.772Z,9.90
2019-02-26T17:08:53.115Z,11.93
2019-02-26T17:13:46.363Z,8.50
2019-02-26T17:18:40.574Z,11.63
2019-02-26T17:23:34.688Z,11.23
2019-02-26T17:28:28.352Z,11.33
2019-02-26T17:33:21.733Z,11.57
2019-02-26T17:38:15.529Z,14.03
2019-02-26T17:43:10.880Z,13.10
2019-02-26T17:48:04.480Z,13.27
2019-02-26T17:52:57.747Z,13.67
2019-02-26T17:57:51.265Z,16.87
2019-02-26T18:02:44.424Z,18.10
2019-02-26T18:07:42.596Z,17.37
2019-02-26T18:12:36.497Z,11.27
2019-02-26T18:17:29.828Z,10.67
2019-02-26T18:22:23.030Z,17.03
2019-02-26T18:27:15.999Z,14.27
2019-02-26T18:32:11.057Z,19.50
2019-02-26T18:37:04.182Z,19.03
2019-02-26T18:41:59.140Z,15.10
2019-02-26T18:46:52.499Z,12.40
2019-02-26T18:51:45.455Z,14.13
2019-02-26T18:56:39.457Z,15.13
2019-02-26T19:01:33.198Z,15.90
2019-02-26T19:06:27.468Z,13.33
2019-02-26T19:11:20.889Z,13.93
2019-02-26T19:16:14.055Z,14.67
2019-02-26T19:21:07.333Z,18.93
2019-02-26T19:26:00.412Z,12.50
2019-02-26T19:30:53.586Z,16.20
2019-02-26T19:35:46.880Z,14.50
2019-02-26T19:40:43.105Z,14.47
2019-02-26T19:45:36.182Z,14.83
2019-02-26T19:50:29.448Z,16.63
2019-02-26T19:55:26.386Z,18.97
2019-02-26T20:00:19.859Z,19.07
2019-02-26T20:05:13.741Z,17.97
2019-02-26T20:10:08.157Z,15.63
2019-02-26T20:15:01.300Z,16.77
2019-02-26T20:19:54.617Z,20.03
2019-02-26T20:24:47.921Z,18.23
2019-02-26T20:29:40.975Z,20.77
2019-02-26T20:34:34.023Z,16.00
2019-02-26T20:39:27.247Z,17.43
2019-02-26T20:44:20.367Z,13.70
2019-02-26T20:49:14.269Z,21.07
2019-02-26T20:54:11.430Z,18.43
2019-02-26T20:59:02.403Z,15.63
2019-02-26T21:03:55.465Z,15.17
2019-02-26T21:08:48.497Z,17.87
2019-02-26T21:13:41.496Z,16.73
2019-02-26T21:18:34.587Z,16.40
2019-02-26T21:23:28.338Z,21.13
2019-02-26T21:28:21.369Z,15.50
2019-02-26T21:33:14.383Z,16.87
2019-02-26T21:38:07.533Z,19.17
2019-02-26T21:43:02.438Z,17.00
2019-02-26T21:47:55.329Z,14.43
2019-02-26T21:53:03.759Z,13.60
2019-02-26T21:57:43.050Z,13.00
2019-02-26T22:02:36.159Z,18.73
2019-02-26T22:07:29.301Z,14.00
2019-02-26T22:12:24.203Z,15.33
2019-02-26T22:17:17.151Z,17.23
2019-02-26T22:22:10.121Z,14.63
2019-02-26T22:27:03.050Z,13.67
2019-02-26T22:31:56.088Z,16.43
2019-02-26T22:36:48.988Z,13.43
2019-02-26T22:41:41.885Z,14.63
2019-02-26T22:46:34.755Z,13.83
2019-02-26T22:51:28.271Z,14.50
2019-02-26T22:56:21.895Z,8.87
2019-02-26T23:01:42.186Z,13.67
2019-02-26T23:06:35.255Z,11.67
2019-02-26T23:11:31.532Z,9.17
2019-02-26T23:16:23.647Z,8.43
2019-02-26T23:21:17.251Z,9.23
2019-02-26T23:26:10.447Z,7.87
2019-02-26T23:31:05.055Z,9.00
2019-02-26T23:35:58.005Z,10.40
2019-02-26T23:40:50.990Z,9.83
2019-02-26T23:45:43.903Z,9.23
2019-02-26T23:50:37.136Z,7.50
2019-02-26T23:55:30.044Z,8.00
